Time;durP1;ratioP1;P1;durP2;ratioP2;P2;SDS_P1;SDS_P2;PMS_P1;PMS_P2;Temp;Humidity;BMP_temperature;BMP_pressure;BME280_temperature;BME280_humidity;BME280_pressure;Samples;Min_cycle;Max_cycle;Signal;HPM_P1;HPM_P2
2021/08/13 00:01:17;;;;;;;32.17;20.05;;;;;;;20.55;92.41;100868.00;1939436;74;21050;-61
2021/08/13 00:03:46;;;;;;;40.65;22.37;;;;;;;20.54;92.39;100866.28;1939548;74;21025;-62
2021/08/13 00:06:15;;;;;;;44.95;26.75;;;;;;;20.54;92.38;100866.28;1939641;74;21040;-62
2021/08/13 00:08:44;;;;;;;51.28;29.82;;;;;;;20.55;92.34;100869.34;1939422;74;21041;-62
2021/08/13 00:11:13;;;;;;;40.67;24.10;;;;;;;20.54;92.30;100871.14;1939621;74;21112;-62
2021/08/13 00:13:41;;;;;;;42.15;24.67;;;;;;;20.54;92.28;100869.80;1939497;74;21021;-61
2021/08/13 00:16:10;;;;;;;17.50;11.43;;;;;;;20.54;92.29;100862.27;1939489;74;21025;-61
2021/08/13 00:18:39;;;;;;;14.68;9.03;;;;;;;20.52;92.29;100859.71;1939751;74;21456;-61
2021/08/13 00:21:10;;;;;;;20.95;12.10;;;;;;;20.51;92.31;100851.80;1939408;74;21051;-62
2021/08/13 00:23:39;;;;;;;15.98;8.83;;;;;;;20.49;92.31;100851.08;1939483;74;21194;-61
2021/08/13 00:26:07;;;;;;;11.38;7.33;;;;;;;20.48;92.29;100848.06;1939500;74;21041;-61
2021/08/13 00:28:36;;;;;;;17.05;9.58;;;;;;;20.48;92.26;100846.72;1939616;74;21139;-61
2021/08/13 00:31:05;;;;;;;22.58;13.80;;;;;;;20.46;92.26;100848.67;1939498;74;21116;-62
2021/08/13 00:33:35;;;;;;;33.58;19.60;;;;;;;20.45;92.21;100845.12;1939498;74;21041;-61
2021/08/13 00:36:04;;;;;;;41.25;22.02;;;;;;;20.44;92.18;100847.45;1939544;74;21508;-61
2021/08/13 00:38:35;;;;;;;37.65;22.73;;;;;;;20.42;92.14;100835.53;1939552;74;21123;-61
2021/08/13 00:41:04;;;;;;;34.88;20.32;;;;;;;20.42;92.12;100831.52;1939575;74;21057;-61
2021/08/13 00:43:33;;;;;;;44.05;24.10;;;;;;;20.42;92.03;100827.50;1924954;74;21074;-62
2021/08/13 00:46:02;;;;;;;39.25;21.57;;;;;;;20.42;91.93;100827.50;1910595;75;21011;-61
2021/08/13 00:48:32;;;;;;;28.07;17.23;;;;;;;20.43;91.84;100830.52;1907528;75;21765;-62
2021/08/13 00:51:03;;;;;;;22.67;14.90;;;;;;;20.43;91.72;100825.67;1909526;75;21069;-62
2021/08/13 00:53:33;;;;;;;30.25;20.50;;;;;;;20.42;91.67;100822.16;1910426;75;21148;-62
2021/08/13 00:56:03;;;;;;;34.73;23.35;;;;;;;20.42;91.59;100819.98;1910598;75;21482;-62
2021/08/13 00:58:34;;;;;;;25.95;16.42;;;;;;;20.41;91.55;100824.45;1908687;75;21535;-62
2021/08/13 01:01:10;;;;;;;25.72;15.10;;;;;;;20.40;91.56;100818.76;1907030;75;21035;-61
2021/08/13 01:03:40;;;;;;;28.12;19.10;;;;;;;20.39;91.50;100822.39;1910648;75;21055;-62
2021/08/13 01:06:12;;;;;;;26.30;15.60;;;;;;;20.39;91.48;100814.37;1910601;75;21054;-61
2021/08/13 01:08:42;;;;;;;29.52;18.90;;;;;;;20.38;91.46;100820.70;1910494;75;21050;-61
2021/08/13 01:11:37;;;;;;;18.30;11.00;;;;;;;20.37;91.48;100814.98;1910470;75;21018;-62
2021/08/13 01:14:13;;;;;;;16.05;10.58;;;;;;;20.36;91.48;100812.42;1910481;75;21489;-62
2021/08/13 01:16:46;;;;;;;18.92;10.20;;;;;;;20.34;91.43;100816.55;1910713;75;21042;-62
2021/08/13 01:19:18;;;;;;;15.70;9.25;;;;;;;20.35;91.46;100821.43;1910709;75;21473;-62
2021/08/13 01:21:52;;;;;;;13.43;8.33;;;;;;;20.34;91.46;100813.88;1910312;75;21532;-62
2021/08/13 01:24:25;;;;;;;17.48;9.53;;;;;;;20.34;91.49;100819.22;1901805;75;21054;-62
2021/08/13 01:27:03;;;;;;;19.05;9.88;;;;;;;20.36;91.53;100819.10;1910678;75;21509;-61
2021/08/13 01:29:48;;;;;;;18.00;9.43;;;;;;;20.35;91.52;100818.27;1910586;75;21066;-61
2021/08/13 01:32:18;;;;;;;;;;;;;;;20.34;91.52;100815.20;1913493;75;21163;-62
2021/08/13 01:34:51;;;;;;;17.23;10.38;;;;;;;20.32;91.64;100810.47;1910468;75;20137;-62
2021/08/13 01:37:22;;;;;;;12.58;7.55;;;;;;;20.34;91.60;100818.38;1908970;75;21054;-62
2021/08/13 01:39:54;;;;;;;12.93;8.40;;;;;;;20.34;91.63;100814.37;1909187;75;21113;-62
2021/08/13 01:42:23;;;;;;;16.23;7.90;;;;;;;20.33;91.70;100816.69;1910491;75;21071;-62
2021/08/13 01:44:52;;;;;;;16.40;8.90;;;;;;;20.34;91.73;100821.05;1918313;75;21086;-62
2021/08/13 01:47:22;;;;;;;18.32;8.83;;;;;;;20.33;91.75;100814.86;1920708;75;21484;-61
2021/08/13 01:49:53;;;;;;;15.32;8.75;;;;;;;20.34;91.76;100821.89;1920826;75;21437;-61
2021/08/13 01:52:23;;;;;;;16.32;8.75;;;;;;;20.34;91.77;100817.88;1920722;75;21084;-61
2021/08/13 01:54:55;;;;;;;20.20;11.60;;;;;;;20.35;91.76;100826.28;1920667;75;21124;-62
2021/08/13 01:57:25;;;;;;;26.70;14.85;;;;;;;20.35;91.78;100826.28;1920714;75;21180;-61
2021/08/13 01:59:55;;;;;;;19.75;10.03;;;;;;;20.36;91.79;100833.34;1920700;75;21062;-61
2021/08/13 02:02:25;;;;;;;19.75;10.38;;;;;;;20.36;91.77;100825.33;1920648;75;21476;-61
2021/08/13 02:04:55;;;;;;;19.37;10.08;;;;;;;20.36;91.79;100829.34;1920655;75;21022;-61
2021/08/13 02:07:24;;;;;;;25.10;13.90;;;;;;;20.37;91.81;100824.83;1920726;75;21022;-62
2021/08/13 02:09:54;;;;;;;18.85;10.40;;;;;;;20.38;91.83;100823.84;1920712;75;21440;-62
2021/08/13 02:12:23;;;;;;;24.92;14.43;;;;;;;20.38;91.91;100823.84;1920668;75;21588;-61
2021/08/13 02:14:52;;;;;;;23.40;14.05;;;;;;;20.39;91.90;100824.22;1920723;75;21010;-61
2021/08/13 02:17:23;;;;;;;22.27;11.78;;;;;;;20.39;91.91;100834.42;1920825;75;21002;-61
2021/08/13 02:19:54;;;;;;;23.15;13.40;;;;;;;20.40;91.90;100826.78;1920715;75;21108;-61
2021/08/13 02:22:23;;;;;;;33.50;19.95;;;;;;;20.40;91.93;100824.10;1918241;75;21026;-61
2021/08/13 02:24:54;;;;;;;23.12;10.68;;;;;;;20.40;91.96;100821.43;1919994;75;21046;-61
2021/08/13 02:27:25;;;;;;;23.73;11.80;;;;;;;20.41;91.98;100825.79;1920743;75;21140;-62
2021/08/13 02:29:54;;;;;;;28.70;14.28;;;;;;;20.42;91.98;100826.66;1920705;75;21595;-61
2021/08/13 02:32:29;;;;;;;28.75;15.40;;;;;;;20.41;91.99;100820.44;1920717;75;21057;-63
2021/08/13 02:34:59;;;;;;;32.17;18.15;;;;;;;20.41;92.04;100827.13;1920861;75;21094;-62
2021/08/13 02:37:41;;;;;;;33.40;20.12;;;;;;;20.41;92.09;100820.44;1920317;75;21117;-60
2021/08/13 02:40:19;;;;;;;53.10;30.57;;;;;;;20.42;92.07;100817.30;1920694;75;21058;-60
2021/08/13 02:42:53;;;;;;;65.35;37.55;;;;;;;20.43;92.07;100810.47;1919680;75;21580;-67
2021/08/13 02:45:24;;;;;;;79.65;44.88;;;;;;;20.44;92.10;100816.20;1912149;75;21074;-68
2021/08/13 02:47:58;;;;;;;76.35;42.43;;;;;;;20.46;92.11;100819.25;1878593;75;21095;-68
2021/08/13 02:50:29;;;;;;;70.20;38.70;;;;;;;20.46;92.17;100820.09;1877881;75;21095;-68
2021/08/13 02:53:01;;;;;;;68.80;37.15;;;;;;;20.48;92.17;100819.97;1908602;75;21073;-71
2021/08/13 02:55:48;;;;;;;47.43;25.48;;;;;;;20.50;92.15;100819.36;1910388;75;21043;-66
2021/08/13 02:58:20;;;;;;;41.45;20.35;;;;;;;20.53;92.13;100820.47;1877895;76;21046;-67
2021/08/13 03:00:51;;;;;;;30.97;15.60;;;;;;;20.53;92.07;100825.81;1880935;75;21568;-65
2021/08/13 03:03:21;;;;;;;32.65;14.38;;;;;;;20.53;92.07;100827.99;1910483;75;21042;-63
2021/08/13 03:05:51;;;;;;;37.75;18.95;;;;;;;20.55;92.02;100829.22;1908593;75;21018;-66
2021/08/13 03:08:21;;;;;;;25.32;12.63;;;;;;;20.58;92.05;100832.96;1893101;76;21033;-60
2021/08/13 03:10:51;;;;;;;21.77;10.20;;;;;;;20.59;92.08;100836.02;1893064;76;21010;-60
2021/08/13 03:13:24;;;;;;;23.65;12.13;;;;;;;20.58;92.08;100833.84;1892712;75;21147;-61
2021/08/13 03:15:55;;;;;;;24.50;10.50;;;;;;;20.58;92.02;100836.97;1893127;76;21033;-60
2021/08/13 03:18:26;;;;;;;25.72;12.50;;;;;;;20.57;92.04;100843.31;1892732;75;21504;-61
2021/08/13 03:20:55;;;;;;;22.65;10.88;;;;;;;20.57;92.05;100845.98;1892960;75;21484;-60
2021/08/13 03:23:24;;;;;;;20.95;10.13;;;;;;;20.56;91.99;100837.58;1892965;76;21500;-60
2021/08/13 03:25:54;;;;;;;20.68;11.78;;;;;;;20.56;91.94;100844.27;1893084;76;21460;-60
2021/08/13 03:28:23;;;;;;;21.10;11.03;;;;;;;20.56;91.94;100846.45;1892941;76;21101;-60
2021/08/13 03:30:52;;;;;;;25.35;11.70;;;;;;;20.58;91.93;100847.67;1892873;75;21500;-61
2021/08/13 03:33:27;;;;;;;18.87;10.23;;;;;;;20.59;91.91;100842.70;1892814;75;21057;-61
2021/08/13 03:35:59;;;;;;;19.15;9.05;;;;;;;20.60;91.89;100840.37;1892944;76;21069;-61
2021/08/13 03:38:28;;;;;;;18.92;9.75;;;;;;;20.61;91.90;100838.11;1892991;76;21091;-61
2021/08/13 03:40:57;;;;;;;22.75;10.53;;;;;;;20.64;91.91;100836.53;1893070;76;21062;-60
2021/08/13 03:43:26;;;;;;;18.73;9.03;;;;;;;20.66;91.91;100833.71;1892802;76;21123;-61
2021/08/13 03:45:56;;;;;;;19.52;9.53;;;;;;;20.67;91.96;100837.61;1924414;73;21151;-61
2021/08/13 03:48:26;;;;;;;24.02;11.85;;;;;;;20.68;91.97;100837.98;1929688;74;21511;-60
2021/08/13 03:50:55;;;;;;;20.50;10.93;;;;;;;20.69;91.96;100828.97;1929636;74;20991;-60
2021/08/13 03:53:24;;;;;;;22.35;10.75;;;;;;;20.71;91.97;100829.72;1929644;74;21038;-60
2021/08/13 03:55:53;;;;;;;20.68;9.63;;;;;;;20.72;92.01;100822.54;1929723;74;21500;-61
2021/08/13 03:58:22;;;;;;;20.52;9.88;;;;;;;20.74;92.03;100828.61;1929669;74;21081;-61
2021/08/13 04:00:51;;;;;;;26.02;12.10;;;;;;;20.76;92.09;100825.33;1929754;74;21171;-61
2021/08/13 04:03:20;;;;;;;20.25;10.53;;;;;;;20.75;92.11;100828.50;1929672;74;21015;-60
2021/08/13 04:05:49;;;;;;;24.00;11.00;;;;;;;20.76;92.15;100823.98;1929668;74;21575;-61
2021/08/13 04:08:18;;;;;;;25.02;13.45;;;;;;;20.77;92.16;100819.85;1929632;74;21039;-62
2021/08/13 04:10:47;;;;;;;28.00;12.55;;;;;;;20.77;92.21;100821.19;1929740;74;21097;-61
2021/08/13 04:13:16;;;;;;;26.73;14.47;;;;;;;20.78;92.24;100813.51;1929741;74;21092;-60
2021/08/13 04:16:03;;;;;;;24.70;12.68;;;;;;;20.79;92.24;100813.89;1929448;74;21153;-60
2021/08/13 04:18:32;;;;;;;28.80;13.68;;;;;;;20.79;92.24;100817.06;1929685;74;21550;-61
2021/08/13 04:21:02;;;;;;;28.98;14.00;;;;;;;20.80;92.28;100813.39;1929515;74;21477;-61
2021/08/13 04:23:32;;;;;;;33.85;15.83;;;;;;;20.81;92.37;100809.26;1929656;74;21109;-61
2021/08/13 04:26:01;;;;;;;33.60;17.25;;;;;;;20.83;92.48;100808.64;1929732;74;21152;-60
2021/08/13 04:28:31;;;;;;;28.15;14.28;;;;;;;20.88;92.45;100810.96;1929662;74;21081;-61
2021/08/13 04:31:01;;;;;;;30.80;14.28;;;;;;;20.93;92.46;100804.72;1929737;74;21532;-61
2021/08/13 04:33:30;;;;;;;29.00;13.60;;;;;;;20.98;92.45;100803.86;1929529;74;21038;-61
2021/08/13 04:36:03;;;;;;;29.48;14.85;;;;;;;21.02;92.40;100799.11;1929112;74;21040;-61
2021/08/13 04:38:33;;;;;;;28.92;15.13;;;;;;;21.05;92.30;100800.20;1929823;74;21038;-61
2021/08/13 04:41:02;;;;;;;26.60;13.62;;;;;;;21.11;92.25;100797.02;1929786;74;21018;-61
2021/08/13 04:43:31;;;;;;;26.80;13.50;;;;;;;21.42;92.07;100798.48;1929626;74;21085;-60
2021/08/13 04:46:00;;;;;;;26.62;13.13;;;;;;;21.55;91.89;100800.52;1915088;74;21047;-61
2021/08/13 04:48:29;;;;;;;19.60;10.75;;;;;;;21.57;91.80;100804.41;1907418;74;21490;-62
2021/08/13 04:50:59;;;;;;;23.65;13.20;;;;;;;21.57;91.66;100809.27;1907566;75;21043;-62
2021/08/13 04:53:28;;;;;;;29.77;13.18;;;;;;;21.66;91.50;100800.11;1907601;75;21496;-62
2021/08/13 04:55:59;;;;;;;22.17;10.63;;;;;;;21.74;91.41;100816.37;1907495;75;21082;-62
2021/08/13 04:58:27;;;;;;;16.80;10.45;;;;;;;21.75;91.33;100816.74;1907364;74;21023;-62
2021/08/13 05:00:57;;;;;;;18.02;10.68;;;;;;;21.83;91.18;100812.91;1907444;75;21043;-62
2021/08/13 05:03:27;;;;;;;20.17;9.95;;;;;;;22.12;90.96;100814.92;1907544;74;21482;-62
2021/08/13 05:05:56;;;;;;;17.17;9.70;;;;;;;22.34;90.83;100816.11;1907505;74;21035;-61
2021/08/13 05:08:25;;;;;;;12.47;7.90;;;;;;;22.34;90.68;100813.43;1907463;75;21105;-62
2021/08/13 05:10:55;;;;;;;18.30;10.65;;;;;;;22.31;90.60;100808.33;1907218;74;21091;-62
2021/08/13 05:13:25;;;;;;;17.92;9.80;;;;;;;22.32;90.44;100807.36;1907516;74;21026;-62
2021/08/13 05:15:54;;;;;;;12.75;8.30;;;;;;;22.56;90.34;100798.13;1907403;75;21528;-62
2021/08/13 05:18:22;;;;;;;18.70;8.58;;;;;;;22.74;90.28;100799.17;1907442;75;21019;-62
2021/08/13 05:20:51;;;;;;;13.90;8.63;;;;;;;22.72;90.10;100800.28;1907659;75;21050;-61
2021/08/13 05:23:21;;;;;;;14.23;7.83;;;;;;;22.74;89.88;100792.46;1907357;75;21086;-62
2021/08/13 05:25:50;;;;;;;15.08;8.45;;;;;;;22.75;89.48;100806.22;1907415;74;21182;-62
2021/08/13 05:28:19;;;;;;;12.30;7.55;;;;;;;23.07;89.12;100802.52;1907437;74;21438;-62
2021/08/13 05:30:47;;;;;;;13.25;6.90;;;;;;;23.96;88.40;100812.73;1907449;75;20987;-62
2021/08/13 05:33:16;;;;;;;11.30;6.25;;;;;;;24.61;87.14;100813.66;1907388;75;21179;-61
2021/08/13 05:35:45;;;;;;;13.50;6.60;;;;;;;25.25;85.45;100812.38;1907518;75;21411;-61
2021/08/13 05:38:14;;;;;;;9.98;6.25;;;;;;;25.48;84.76;100811.39;1907327;75;21110;-62
2021/08/13 05:40:44;;;;;;;11.68;5.37;;;;;;;25.38;82.92;100814.69;1907508;75;21089;-61
2021/08/13 05:43:14;;;;;;;9.30;5.92;;;;;;;25.23;81.46;100814.31;1907492;75;21171;-61
2021/08/13 05:45:44;;;;;;;10.30;5.15;;;;;;;25.30;81.25;100816.78;1907368;74;21181;-61
2021/08/13 05:48:13;;;;;;;11.90;5.75;;;;;;;25.29;81.23;100811.06;1907518;75;21023;-61
2021/08/13 05:50:42;;;;;;;11.68;6.47;;;;;;;25.21;81.21;100814.97;1907318;75;21087;-62
2021/08/13 05:53:12;;;;;;;11.48;6.05;;;;;;;24.95;81.33;100813.53;1907274;74;21071;-62
2021/08/13 05:55:42;;;;;;;8.35;5.40;;;;;;;24.88;81.27;100811.97;1907519;75;21602;-62
2021/08/13 05:58:11;;;;;;;8.00;6.05;;;;;;;24.92;80.79;100816.52;1907385;74;21167;-61
2021/08/13 06:00:40;;;;;;;8.70;4.65;;;;;;;24.73;80.59;100812.94;1907454;75;20991;-61
2021/08/13 06:03:09;;;;;;;8.38;4.95;;;;;;;24.50;80.91;100813.83;1907288;75;21439;-62
2021/08/13 06:05:42;;;;;;;9.90;5.00;;;;;;;24.33;81.11;100809.21;1905901;74;21099;-61
2021/08/13 06:08:13;;;;;;;8.60;4.72;;;;;;;24.38;81.28;100808.27;1907239;74;21130;-62
2021/08/13 06:10:42;;;;;;;5.00;4.12;;;;;;;24.71;81.30;100803.34;1907431;74;21059;-61
2021/08/13 06:13:10;;;;;;;7.25;3.85;;;;;;;25.51;80.55;100802.13;1907510;74;21011;-61
2021/08/13 06:15:39;;;;;;;4.92;3.77;;;;;;;25.84;79.24;100799.69;1907280;74;21102;-62
2021/08/13 06:18:10;;;;;;;9.40;4.60;;;;;;;25.48;78.04;100800.60;1907435;74;21047;-62
2021/08/13 06:20:39;;;;;;;5.25;3.80;;;;;;;25.16;78.22;100803.33;1907484;74;21116;-61
2021/08/13 06:23:15;;;;;;;7.15;4.20;;;;;;;24.91;78.42;100795.48;1906020;75;21085;-62
2021/08/13 06:25:45;;;;;;;8.70;4.15;;;;;;;24.61;78.44;100806.09;1907402;74;20979;-61
2021/08/13 06:28:14;;;;;;;7.15;3.98;;;;;;;24.41;78.89;100799.92;1907280;75;21035;-62
2021/08/13 06:30:45;;;;;;;6.42;4.20;;;;;;;24.32;79.39;100802.16;1907542;75;21521;-61
2021/08/13 06:33:14;;;;;;;5.33;3.62;;;;;;;24.23;79.49;100799.84;1907498;74;21552;-61
2021/08/13 06:35:42;;;;;;;6.00;3.83;;;;;;;24.14;79.74;100797.53;1907389;75;21098;-62
2021/08/13 06:38:11;;;;;;;7.55;4.25;;;;;;;24.07;79.88;100793.75;1907511;74;21116;-61
2021/08/13 06:40:42;;;;;;;9.65;4.10;;;;;;;24.08;80.27;100792.74;1907205;74;21071;-62
2021/08/13 06:43:12;;;;;;;5.87;3.58;;;;;;;24.03;80.45;100801.27;1907525;75;21583;-61
2021/08/13 06:45:45;;;;;;;6.45;3.65;;;;;;;24.08;80.47;100799.47;1907239;74;21098;-61
2021/08/13 06:48:15;;;;;;;6.37;2.77;;;;;;;24.28;80.34;100802.94;1907302;74;21140;-61
2021/08/13 06:50:44;;;;;;;4.87;3.40;;;;;;;24.31;80.10;100804.48;1907490;75;20980;-61
2021/08/13 06:53:13;;;;;;;7.80;3.55;;;;;;;24.31;80.04;100809.86;1907409;75;21063;-62
2021/08/13 06:55:42;;;;;;;7.03;3.27;;;;;;;24.51;80.17;100815.50;1899576;75;21087;-62
2021/08/13 06:58:11;;;;;;;6.35;3.35;;;;;;;24.74;80.02;100815.16;1907406;74;21007;-61
2021/08/13 07:00:41;;;;;;;6.35;3.87;;;;;;;24.93;79.64;100821.76;1907382;75;21031;-61
2021/08/13 07:03:11;;;;;;;4.53;2.33;;;;;;;25.04;79.23;100823.39;1907417;75;21109;-62
2021/08/13 07:05:40;;;;;;;6.20;3.52;;;;;;;25.05;78.49;100825.10;1907328;75;21553;-62
2021/08/13 07:08:13;;;;;;;5.05;2.62;;;;;;;24.93;77.78;100824.45;1907462;75;21040;-61
2021/08/13 07:10:43;;;;;;;5.42;2.70;;;;;;;24.79;77.70;100816.91;1905870;74;21054;-62
2021/08/13 07:13:12;;;;;;;3.33;2.45;;;;;;;24.72;78.17;100826.58;1907430;75;21059;-61
2021/08/13 07:15:42;;;;;;;4.12;2.50;;;;;;;24.64;78.00;100817.41;1907487;75;21164;-61
2021/08/13 07:18:11;;;;;;;10.10;3.30;;;;;;;24.53;77.80;100820.30;1907247;75;21047;-62
2021/08/13 07:20:40;;;;;;;8.70;3.35;;;;;;;24.42;77.99;100813.70;1907417;75;21067;-62
2021/08/13 07:23:11;;;;;;;18.30;5.28;;;;;;;24.32;78.39;100813.75;1907469;75;21136;-61
2021/08/13 07:25:40;;;;;;;7.58;3.27;;;;;;;24.25;78.74;100815.33;1907362;74;21132;-62
2021/08/13 07:28:08;;;;;;;10.28;5.10;;;;;;;24.21;79.00;100824.20;1907581;75;21011;-62
2021/08/13 07:30:39;;;;;;;9.53;4.53;;;;;;;24.21;79.22;100830.92;1907114;74;21145;-62
2021/08/13 07:33:08;;;;;;;7.95;6.10;;;;;;;24.58;79.14;100814.45;1907438;74;21105;-61
2021/08/13 07:35:37;;;;;;;17.42;11.15;;;;;;;26.08;78.00;100804.42;1907344;75;21015;-62
2021/08/13 07:38:06;;;;;;;6.45;3.80;;;;;;;27.38;76.11;100803.22;1907407;74;21059;-61
2021/08/13 07:40:37;;;;;;;9.33;3.52;;;;;;;28.06;74.19;100814.18;1907339;75;21055;-61
2021/08/13 07:43:08;;;;;;;7.05;3.92;;;;;;;28.00;73.46;100812.17;1907399;74;21015;-62
2021/08/13 07:45:37;;;;;;;6.67;3.50;;;;;;;27.62;72.09;100811.84;1907418;74;21113;-62
2021/08/13 07:48:06;;;;;;;10.70;4.00;;;;;;;27.27;72.99;100819.78;1907407;74;21079;-62
2021/08/13 07:50:35;;;;;;;5.80;2.50;;;;;;;26.90;73.09;100815.11;1907365;74;21023;-62
2021/08/13 07:53:04;;;;;;;3.02;2.08;;;;;;;26.59;73.33;100819.69;1907368;75;21110;-62
2021/08/13 07:55:33;;;;;;;2.08;1.80;;;;;;;26.61;72.28;100802.53;1907215;75;21094;-63
2021/08/13 07:58:02;;;;;;;3.05;1.75;;;;;;;26.61;72.03;100797.96;1907405;75;21016;-61
2021/08/13 08:00:31;;;;;;;3.37;2.00;;;;;;;26.58;71.57;100788.83;1907343;75;21494;-62
2021/08/13 08:02:59;;;;;;;3.92;2.10;;;;;;;26.56;71.11;100791.69;1907366;74;21100;-62
2021/08/13 08:05:27;;;;;;;2.30;1.50;;;;;;;26.39;71.46;100789.42;1907467;74;21101;-62
2021/08/13 08:07:55;;;;;;;4.05;2.30;;;;;;;26.21;71.52;100787.32;1907536;74;21022;-62
2021/08/13 08:10:22;;;;;;;2.37;1.77;;;;;;;25.94;71.47;100788.34;1907283;74;21092;-62
2021/08/13 08:12:51;;;;;;;3.25;1.90;;;;;;;25.67;72.11;100789.29;1907576;74;21011;-62
2021/08/13 08:15:19;;;;;;;3.30;1.67;;;;;;;25.41;72.79;100790.09;1907363;74;21018;-62
2021/08/13 08:17:47;;;;;;;2.92;1.70;;;;;;;25.29;73.43;100794.05;1907531;74;21471;-61
2021/08/13 08:20:15;;;;;;;3.67;2.05;;;;;;;25.12;73.94;100790.30;1907384;74;21077;-62
2021/08/13 08:22:43;;;;;;;3.12;1.85;;;;;;;25.00;74.56;100803.99;1907367;74;21066;-62
2021/08/13 08:25:12;;;;;;;4.15;2.60;;;;;;;24.89;74.90;100791.26;1907463;74;21117;-61
2021/08/13 08:27:40;;;;;;;3.70;2.50;;;;;;;24.78;75.10;100793.66;1907526;74;21085;-62
2021/08/13 08:30:09;;;;;;;4.53;2.83;;;;;;;24.73;75.54;100794.09;1907465;74;21057;-62
2021/08/13 08:32:37;;;;;;;4.45;2.25;;;;;;;24.73;75.83;100799.48;1907477;74;20995;-62
2021/08/13 08:35:05;;;;;;;4.42;2.77;;;;;;;24.80;75.84;100794.35;1907467;74;21007;-62
2021/08/13 08:37:33;;;;;;;10.85;4.50;;;;;;;24.86;75.76;100787.00;1907401;74;21115;-62
2021/08/13 08:40:01;;;;;;;10.72;3.90;;;;;;;24.99;75.89;100787.98;1907520;74;21077;-62
2021/08/13 08:42:29;;;;;;;8.95;3.35;;;;;;;25.26;75.78;100775.48;1907498;74;21083;-62
2021/08/13 08:44:58;;;;;;;8.23;4.62;;;;;;;25.59;75.16;100773.91;1907695;74;21007;-62
2021/08/13 08:47:27;;;;;;;9.40;3.75;;;;;;;25.73;74.63;100776.03;1908155;73;21019;-62
2021/08/13 08:49:56;;;;;;;8.75;3.40;;;;;;;25.68;73.93;100781.05;1916829;75;21066;-62
2021/08/13 08:52:26;;;;;;;6.00;2.58;;;;;;;25.64;74.19;100779.68;1916933;75;21529;-62
2021/08/13 08:54:55;;;;;;;1.92;1.62;;;;;;;25.66;74.08;100787.11;1917066;75;21383;-62
2021/08/13 08:57:29;;;;;;;2.77;2.02;;;;;;;25.73;73.43;100784.61;1916947;75;21137;-62
2021/08/13 08:59:57;;;;;;;4.28;1.95;;;;;;;25.74;73.30;100787.66;1916695;74;21096;-61
2021/08/13 09:02:26;;;;;;;3.27;2.22;;;;;;;25.57;73.18;100785.35;1916870;74;21022;-62
2021/08/13 09:04:54;;;;;;;5.10;1.92;;;;;;;25.47;73.17;100791.31;1916929;75;21123;-62
2021/08/13 09:07:22;;;;;;;2.95;2.00;;;;;;;25.49;73.19;100786.61;1917135;75;21450;-61
2021/08/13 09:09:49;;;;;;;2.65;1.62;;;;;;;25.42;73.20;100795.34;1917135;75;21085;-61
2021/08/13 09:12:17;;;;;;;3.27;1.87;;;;;;;25.35;73.22;100792.08;1916926;75;21046;-62
2021/08/13 09:14:45;;;;;;;3.50;1.72;;;;;;;25.27;72.97;100800.94;1917120;75;21031;-63
2021/08/13 09:17:14;;;;;;;3.50;1.67;;;;;;;25.21;72.53;100796.11;1917091;75;21131;-61
2021/08/13 09:19:44;;;;;;;2.72;2.02;;;;;;;25.25;72.16;100796.20;1916916;75;21128;-62
2021/08/13 09:22:15;;;;;;;6.15;1.85;;;;;;;25.39;71.88;100796.98;1916849;74;21124;-62
2021/08/13 09:24:45;;;;;;;2.37;1.57;;;;;;;25.53;71.71;100809.59;1916653;74;21047;-62
2021/08/13 09:27:18;;;;;;;3.20;2.05;;;;;;;25.56;71.84;100814.64;1917080;75;21548;-62
2021/08/13 09:30:07;;;;;;;4.60;2.25;;;;;;;25.54;71.86;100803.17;1917110;75;21054;-62
2021/08/13 09:32:38;;;;;;;3.30;1.87;;;;;;;26.09;71.51;100789.94;1914754;74;21132;-62
2021/08/13 09:35:08;;;;;;;4.35;1.82;;;;;;;26.52;70.25;100784.06;1917055;75;21011;-62
2021/08/13 09:37:38;;;;;;;4.20;1.50;;;;;;;26.64;69.28;100770.64;1916906;75;21072;-62
2021/08/13 09:40:09;;;;;;;1.80;1.30;;;;;;;26.90;68.94;100766.48;1915531;74;21058;-62
2021/08/13 09:42:40;;;;;;;5.70;1.65;;;;;;;27.51;67.63;100760.29;1916922;75;21015;-61
2021/08/13 09:45:11;;;;;;;4.50;1.93;;;;;;;28.06;65.60;100760.05;1917161;75;21482;-62
2021/08/13 09:47:43;;;;;;;5.10;2.30;;;;;;;28.60;65.04;100761.22;1917035;75;20999;-62
2021/08/13 09:50:14;;;;;;;2.98;1.77;;;;;;;28.23;64.75;100762.70;1916461;74;21522;-62
2021/08/13 09:53:04;;;;;;;5.35;1.90;;;;;;;27.57;65.97;100766.04;1916915;75;21039;-62
2021/08/13 09:55:33;;;;;;;5.83;2.15;;;;;;;26.93;67.62;100764.80;1916888;75;21046;-62
2021/08/13 09:58:01;;;;;;;8.98;2.58;;;;;;;26.31;69.12;100758.34;1916915;75;21490;-62
2021/08/13 10:00:30;;;;;;;8.03;3.00;;;;;;;25.89;70.17;100760.44;1916924;75;21525;-62
2021/08/13 10:03:05;;;;;;;9.35;2.95;;;;;;;25.63;71.20;100752.36;1916867;75;21112;-62
2021/08/13 10:05:34;;;;;;;13.88;4.40;;;;;;;25.59;71.86;100746.44;1917018;75;21153;-62
2021/08/13 10:08:05;;;;;;;4.37;1.72;;;;;;;25.75;72.41;100750.27;1916956;74;21130;-62
2021/08/13 10:10:36;;;;;;;2.55;1.05;;;;;;;25.94;72.33;100752.76;1916904;75;21027;-62
2021/08/13 10:13:08;;;;;;;2.45;1.22;;;;;;;26.04;71.15;100753.14;1916839;74;20995;-61
2021/08/13 10:15:43;;;;;;;3.20;1.10;;;;;;;26.11;70.18;100750.98;1916131;74;21551;-62
2021/08/13 10:18:16;;;;;;;1.52;1.02;;;;;;;26.69;69.57;100747.17;1915950;74;21110;-62
2021/08/13 10:20:53;;;;;;;2.22;1.20;;;;;;;27.36;68.19;100743.59;1916765;74;21133;-61
2021/08/13 10:23:23;;;;;;;2.47;1.30;;;;;;;27.79;66.46;100738.78;1916680;74;21075;-62
2021/08/13 10:25:55;;;;;;;1.67;1.22;;;;;;;27.98;65.80;100743.86;1916632;74;21150;-62
2021/08/13 10:28:27;;;;;;;1.17;0.93;;;;;;;27.89;65.18;100734.91;1916638;74;21154;-62
2021/08/13 10:30:59;;;;;;;3.27;1.42;;;;;;;27.57;65.02;100722.25;1916733;74;21137;-62
2021/08/13 10:33:28;;;;;;;3.55;1.77;;;;;;;27.23;64.74;100730.03;1917051;74;21117;-61
2021/08/13 10:35:59;;;;;;;4.33;0.90;;;;;;;26.96;65.15;100728.01;1916932;74;21484;-62
2021/08/13 10:38:32;;;;;;;1.65;1.17;;;;;;;26.70;64.64;100724.58;1916838;74;21168;-62
2021/08/13 10:41:03;;;;;;;2.58;0.90;;;;;;;26.51;65.15;100721.13;1917245;75;21042;-61
2021/08/13 10:43:34;;;;;;;1.35;1.00;;;;;;;26.33;65.01;100717.69;1917024;75;21110;-61
2021/08/13 10:46:10;;;;;;;2.92;1.02;;;;;;;26.28;65.11;100707.88;1916950;75;21078;-61
2021/08/13 10:48:46;;;;;;;3.40;1.20;;;;;;;26.34;65.55;100705.39;1916734;74;21438;-62
2021/08/13 10:51:16;;;;;;;2.95;1.10;;;;;;;26.49;65.87;100704.77;1916557;74;21477;-61
2021/08/13 10:53:45;;;;;;;2.55;0.85;;;;;;;26.59;65.18;100691.42;1916010;74;21019;-61
2021/08/13 10:56:21;;;;;;;2.70;1.00;;;;;;;26.74;64.58;100693.52;1916585;74;21132;-62
2021/08/13 10:58:50;;;;;;;3.02;0.90;;;;;;;26.84;63.46;100706.38;1911851;73;21481;-61
2021/08/13 11:01:21;;;;;;;1.22;0.60;;;;;;;26.92;62.70;100698.27;1916578;74;21588;-61
2021/08/13 11:03:57;;;;;;;3.08;0.93;;;;;;;26.94;62.29;100697.59;1916525;74;21063;-62
2021/08/13 11:06:39;;;;;;;3.77;1.17;;;;;;;26.96;62.21;100693.37;1916555;75;21607;-62
2021/08/13 11:09:25;;;;;;;5.03;1.57;;;;;;;27.10;62.48;100693.22;1916762;74;21084;-61
2021/08/13 11:11:59;;;;;;;2.20;1.12;;;;;;;27.16;62.11;100695.23;1916834;75;21110;-61
2021/08/13 11:14:48;;;;;;;1.87;1.00;;;;;;;27.15;61.39;100681.40;1916759;74;21082;-61
2021/08/13 11:17:42;;;;;;;2.12;1.00;;;;;;;27.15;61.43;100672.78;1916886;75;21071;-61
2021/08/13 11:20:16;;;;;;;3.85;1.40;;;;;;;27.30;62.28;100671.61;1916741;74;21221;-61
2021/08/13 11:22:46;;;;;;;3.67;1.90;;;;;;;27.44;61.83;100669.22;1915478;74;21075;-61
2021/08/13 11:25:16;;;;;;;1.98;0.80;;;;;;;27.47;61.91;100666.18;1916946;75;21466;-61
2021/08/13 11:28:04;;;;;;;2.40;0.80;;;;;;;27.31;61.19;100662.47;1916858;74;21517;-61
2021/08/13 11:30:44;;;;;;;2.15;0.65;;;;;;;27.07;60.90;100659.77;1885880;74;21030;-62
2021/08/13 11:33:34;;;;;;;2.62;1.00;;;;;;;26.94;61.18;100659.77;1916897;75;21088;-62
2021/08/13 11:36:03;;;;;;;2.90;0.90;;;;;;;27.00;61.47;100650.13;1916868;74;21034;-61